Accueil
METAR-TAF:

METAR-TAF

Aéroports :

Aéroport de Novossibirsk-Tolmatchevo

Novossibirsk, Russie

latitude: 55-01N, longitude: 082-38E, altitude: 111 m

Observation

Le bulletin a été fait il y a 29 minutes, à 19:00 UTC
Vent 10 kt de sud
Température -2°C
Humidité 74%
Pression 1025 hPa
Visibilité 10 km ou plus
pas de nuages en-dessous de 1500 mètres et pas de cumulonimbus.

METAR: UNNT 291900Z 19005MPS CAVOK M02/M06 Q1025 R25/150060 R16/090070 NOSIG RMK QFE759/1012

Heure: 02:29 (19:29 UTC)

Prévision

Le bulletin a été fait il y a 2 heures et 29 minutes, à 17:00 UTC
Prévision valable du 29 à 18 UTC au 30 à 18 UTC
Vent 10 kt de sud/sud-ouest avec des rafales jusqu'à 19 kt
Visibilité 10 km ou plus
pas de nuages en-dessous de 1500 mètres et pas de cumulonimbus.
Temporairement
du 30 à 05 UTC au 30 à 10 UTC
Vent 14 kt de ouest/sud-ouest avec des rafales jusqu'à 29 kt

TAF: UNNT 291700Z 2918/3018 20005G10MPS CAVOK TEMPO 3005/3010 24007G15MPS

Observations et prévisions météorologiques de plus de 4000 aéroports (messages METAR et TAF).

Les stations disponibles sont représentées par des disques jaunes et rouges sur la carte.

Passer la souris dessus pour voir le nom de la station.

Cliquer dessus pour voir les observations et prévisions météorologiques.

Pour changer de carte: cliquez sur les boutons verts avec une croix noire pour zoomer, sur le bouton vert avec un tiret pour effectuer un zoom arrière, ou sur les flèches vertes pour les cartes adjacentes.


METAR-TAF: